M I D A S
Marine Information and Data Acquisition System
Tripno 1747 of the Zeeleeuw from 2009-08-12 06:34:27 to 2009-08-12 12:35:58
Back to CruiseResearch ActivitiesStationsMapUnderway DataData graphs

EquipmentUnitsComment
TimeDGPSUTC
LatitudeDGPSDM.mWGS84
LongitudeDGPSDM.mWGS84
TemperatureSBE03/SBE38deg celciusITS90
ConductivitySBE21S/mITS90
SalinitySBE21 Practical Salinity Units
ChlorophylAChelsea fluorimeterg/lCalibrated in Aceton
Missing or incorrect values are displayed as -999
Sea surface data collected by the RV Zeeleeuw from 2009-08-12 06:28:51 to 2009-08-12 12:41:58
Time Latitude Longitude Temperature Conductivity Salinity ChlorophylA
2009-08-12 06:29:55 51°13.686 2°55.91 22.9864 0.233021 1.22936 23.828982
2009-08-12 06:30:55 51°13.686 2°55.909 22.99 0.232713 1.227763 23.759334
2009-08-12 06:31:55 51°13.689 2°55.91 22.9968 0.232816 1.228454 23.689686
2009-08-12 06:32:55 51°13.689 2°55.91 23.0017 0.231992 1.223998 23.620038
2009-08-12 06:33:55 51°13.689 2°55.911 23.0068 0.231477 1.221257 23.585214
2009-08-12 06:34:55 51°13.688 2°55.911 23.0198 0.230242 1.214514 23.55039
2009-08-12 06:35:55 51°13.686 2°55.91 23.0225 0.23158 1.222066 23.480742
2009-08-12 06:36:55 51°13.687 2°55.911 23.0261 0.229419 1.210176 23.445918
2009-08-12 06:37:55 51°13.686 2°55.91 23.0445 0.227257 1.198292 23.376269
2009-08-12 06:38:55 51°13.685 2°55.908 23.1338 0.2463 1.304408 23.306621
2009-08-12 06:39:59 51°13.696 2°55.851 23.1114 0.269976 1.437191 23.271797
2009-08-12 06:40:59 51°13.699 2°55.783 23.1126 0.276667 1.474982 23.236973
2009-08-12 06:41:57 51°13.697 2°55.766 23.1 0.245683 1.301445 23.167325
2009-08-12 06:42:56 51°13.702 2°55.752 23.1837 0.469817 2.586319 23.132501
2009-08-12 06:43:55 51°13.749 2°55.709 23.1564 0.706399 3.99712 23.062853
2009-08-12 06:44:55 51°13.813 2°55.647 23.1429 0.716494 4.05897 22.993205
2009-08-12 06:45:55 51°13.877 2°55.629 23.17 0.706708 4.000038 22.958381
2009-08-12 06:46:55 51°13.93 2°55.629 23.1677 0.675906 3.814394 22.923557
2009-08-12 06:47:55 51°13.966 2°55.611 23.1674 0.662103 3.731382 22.853909
2009-08-12 06:48:55 51°14.011 2°55.568 23.1761 0.701042 3.967147 22.819085
2009-08-12 06:49:55 51°14.095 2°55.463 23.1684 0.627802 3.52581 22.749436
2009-08-12 06:50:55 51°14.203 2°55.33 23.2137 0.617399 3.463764 22.679788
2009-08-12 06:51:55 51°14.304 2°55.162 23.1658 0.602567 3.375348 22.644964
2009-08-12 06:52:55 51°14.42 2°54.978 23.1992 0.380648 2.070174 22.575316
2009-08-12 06:53:55 51°14.579 2°54.826 23.1905 0.456534 2.511509 22.540492
2009-08-12 06:54:55 51°14.747 2°54.671 23.1744 0.345643 1.868902 22.470844
2009-08-12 06:55:55 51°14.916 2°54.527 23.1627 0.187732 0.981906 22.43602
2009-08-12 06:56:55 51°15.086 2°54.384 23.158 0.163853 0.852712 22.401196
2009-08-12 06:57:55 51°15.253 2°54.24 23.1589 0.144606 0.748428 22.366372
2009-08-12 06:58:55 51°15.42 2°54.095 23.1655 0.138946 0.718284 22.331548
2009-08-12 06:59:55 51°15.588 2°53.949 23.1445 0.148312 0.770626 22.2619
2009-08-12 07:00:55 51°15.754 2°53.801 23.1668 0.150267 0.780561 22.192252
2009-08-12 07:01:55 51°15.922 2°53.654 23.1545 0.134623 0.696302 22.122603
2009-08-12 07:02:56 51°16.093 2°53.505 23.1483 0.131638 0.681507 22.018131
2009-08-12 07:03:55 51°16.262 2°53.364 23.1744 0.127625 0.660033 21.948483
2009-08-12 07:04:56 51°16.436 2°53.216 23.1753 0.127316 0.658485 21.878835
2009-08-12 07:05:55 51°16.603 2°53.075 23.1922 0.121552 0.627966 21.809187
2009-08-12 07:06:56 51°16.776 2°52.928 23.1791 0.132153 0.684975 21.739539
2009-08-12 07:07:56 51°16.941 2°52.771 23.187 0.11795 0.608442 21.669891
2009-08-12 07:08:56 51°17.104 2°52.607 23.1958 0.116921 0.603451 21.600243
2009-08-12 07:09:56 51°17.265 2°52.439 23.2077 0.117642 0.606862 21.530595
2009-08-12 07:10:56 51°17.426 2°52.268 23.2095 0.135138 0.701621 21.460946
2009-08-12 07:11:56 51°17.561 2°52.053 23.2042 0.127213 0.658943 21.391298
2009-08-12 07:12:55 51°17.68 2°51.819 23.2224 0.124743 0.645826 21.286826
2009-08-12 07:13:55 51°17.799 2°51.579 23.2301 0.124949 0.64678 21.217178
2009-08-12 07:14:56 51°17.924 2°51.337 23.2424 0.120112 0.621419 21.14753
2009-08-12 07:15:56 51°18.048 2°51.099 23.253 0.120112 0.622025 21.112706
2009-08-12 07:16:56 51°18.171 2°50.861 23.2548 0.129168 0.670841 21.043058
2009-08-12 07:17:55 51°18.291 2°50.626 23.256 0.112702 0.582096 20.97341
2009-08-12 07:18:56 51°18.416 2°50.383 23.2742 0.118877 0.615172 20.903762
2009-08-12 07:19:55 51°18.537 2°50.151 23.2862 0.123302 0.63914 20.868938
2009-08-12 07:20:56 51°18.659 2°49.91 23.2878 0.114451 0.591514 20.799289
2009-08-12 07:21:55 51°18.779 2°49.678 23.2935 0.120729 0.625561 20.729641
2009-08-12 07:22:56 51°18.903 2°49.433 23.3046 0.120215 0.622894 20.659993
2009-08-12 07:23:56 51°19.024 2°49.189 23.31 0.126904 0.659351 20.590345
2009-08-12 07:24:56 51°19.147 2°48.945 23.3232 0.119494 0.619005 20.555521
2009-08-12 07:25:56 51°19.27 2°48.701 23.3323 0.120009 0.622826 20.485873
2009-08-12 07:26:55 51°19.393 2°48.462 23.3448 0.118671 0.615152 20.451049
2009-08-12 07:27:56 51°19.517 2°48.221 23.3557 0.115275 0.597167 20.381401
2009-08-12 07:28:55 51°19.636 2°47.988 23.3668 0.128345 0.667771 20.346577
2009-08-12 07:29:56 51°19.761 2°47.746 23.3879 0.116818 0.605655 20.276929
2009-08-12 07:30:55 51°19.881 2°47.51 23.3877 0.116304 0.602818 20.207281
2009-08-12 07:31:56 51°20.007 2°47.265 23.4016 0.127522 0.663639 20.172456
2009-08-12 07:32:56 51°20.131 2°47.025 23.4061 0.12392 0.644048 20.102808
2009-08-12 07:33:56 51°20.253 2°46.783 23.4158 0.111467 0.576929 20.067984
2009-08-12 07:34:56 51°20.374 2°46.541 23.4308 0.122376 0.635603 19.998336
2009-08-12 07:35:55 51°20.495 2°46.3 23.4505 0.113319 0.587208 19.963512
2009-08-12 07:36:56 51°20.622 2°46.052 23.4432 0.111055 0.575077 19.893864
2009-08-12 07:37:56 51°20.769 2°45.853 23.4067 0.090472 0.464671 19.85904
2009-08-12 07:38:56 51°20.938 2°45.699 23.4261 0.085738 0.439741 19.85904
2009-08-12 07:39:56 51°21.102 2°45.542 23.4318 0.084812 0.434917 19.789392
2009-08-12 07:40:55 51°21.254 2°45.364 23.4685 0.086253 0.442545 19.754568
2009-08-12 07:41:56 51°21.41 2°45.171 23.4628 0.08615 0.442063 19.719744
2009-08-12 07:42:56 51°21.568 2°44.985 23.4587 0.084709 0.434406 19.68492
2009-08-12 07:43:56 51°21.734 2°44.815 23.4935 0.089031 0.457428 19.650096
2009-08-12 07:44:55 51°21.885 2°44.621 23.4764 0.08615 0.442113 19.580448
2009-08-12 07:45:56 51°22.022 2°44.43 23.506 0.091398 0.470105 19.545624
2009-08-12 07:46:55 51°22.111 2°44.313 23.5206 0.088517 0.454808 19.475975
2009-08-12 07:47:56 51°22.182 2°44.216 23.5269 0.087693 0.450508 19.441151
2009-08-12 07:48:56 51°22.274 2°44.095 23.5379 0.088002 0.452209 19.406327
2009-08-12 07:49:56 51°22.349 2°43.996 23.5523 0.088105 0.452772 19.336679
2009-08-12 07:50:56 51°22.417 2°43.905 23.557 0.088414 0.454452 19.301855
2009-08-12 07:51:55 51°22.482 2°43.816 23.571 0.088723 0.456177 19.267031
2009-08-12 07:52:56 51°22.611 2°43.713 23.5632 0.092942 0.478696 19.232207
2009-08-12 07:53:55 51°22.782 2°43.772 23.5661 0.092942 0.478743 19.232207
2009-08-12 07:54:56 51°22.937 2°43.948 23.5757 0.093971 0.484344 19.162559
2009-08-12 07:55:56 51°23.084 2°44.14 23.5809 0.092633 0.477218 19.127735
2009-08-12 07:56:55 51°23.23 2°44.325 23.6112 0.092942 0.478875 19.127735
2009-08-12 07:57:56 51°23.371 2°44.532 23.6302 0.091604 0.471784 19.058087
2009-08-12 07:58:56 51°23.508 2°44.739 23.6064 0.089855 0.462494 19.023263
2009-08-12 07:59:56 51°23.644 2°44.943 23.6432 0.088414 0.454843 18.988439
2009-08-12 08:00:56 51°23.78 2°45.146 23.6706 0.09109 0.469159 18.918791
2009-08-12 08:01:56 51°23.911 2°45.36 23.6855 0.096544 0.498376 18.883966
2009-08-12 08:02:55 51°24.039 2°45.574 23.6974 0.094074 0.485178 18.849142
2009-08-12 08:03:56 51°24.173 2°45.794 23.7079 0.09006 0.463765 18.814318
2009-08-12 08:04:56 51°24.306 2°46.006 23.7271 0.097059 0.501247 18.779494
2009-08-12 08:05:56 51°24.439 2°46.221 23.7077 0.088311 0.454516 18.74467
2009-08-12 08:06:56 51°24.572 2°46.435 23.741 0.089443 0.46059 18.709846
2009-08-12 08:07:56 51°24.703 2°46.65 23.7545 0.092839 0.478777 18.675022
2009-08-12 08:08:56 51°24.834 2°46.866 23.7517 0.091501 0.471618 18.640198
2009-08-12 08:09:56 51°24.966 2°47.084 23.7892 0.095618 0.493729 18.605374
2009-08-12 08:10:56 51°25.1 2°47.3 23.7964 0.098705 0.510277 18.605374
2009-08-12 08:11:56 51°25.236 2°47.511 23.7921 0.096029 0.495983 18.57055
2009-08-12 08:12:56 51°25.376 2°47.71 23.8096 0.095103 0.491044 18.535726
2009-08-12 08:13:56 51°25.518 2°47.907 23.818 0.098088 0.507087 18.500902
2009-08-12 08:14:56 51°25.66 2°48.104 23.8219 0.095824 0.494977 18.466078
2009-08-12 08:15:56 51°25.763 2°48.243 23.856 0.101896 0.52764 18.431254
2009-08-12 08:16:56 51°25.839 2°48.324 23.8565 0.101896 0.527692 18.431254
2009-08-12 08:17:56 51°25.905 2°48.398 23.7082 0.086253 0.443838 18.431254
2009-08-12 08:18:56 51°25.964 2°48.476 23.7762 0.089443 0.460927 18.361606
2009-08-12 08:19:56 51°26.016 2°48.501 23.815 0.087385 0.450076 18.326782
2009-08-12 08:20:56 51°26.034 2°48.498 23.8394 0.088208 0.454528 18.257134
2009-08-12 08:21:56 51°26.045 2°48.495 23.8647 0.087385 0.450142 18.222309
2009-08-12 08:22:56 51°26.05 2°48.497 23.8843 0.089031 0.458984 18.152661
2009-08-12 08:23:56 51°26.052 2°48.501 23.9218 0.087385 0.450252 18.117837
2009-08-12 08:24:56 51°26.052 2°48.504 23.9507 0.087282 0.449747 18.083013
2009-08-12 08:25:56 51°26.05 2°48.504 23.9808 0.086047 0.443196 18.048189
2009-08-12 08:26:56 51°26.049 2°48.503 24.0186 0.08862 0.456986 18.013365
2009-08-12 08:27:56 51°26.048 2°48.501 24.0485 0.089752 0.463096 17.978541
2009-08-12 08:28:56 51°26.046 2°48.498 24.094 0.089134 0.459833 17.943717
2009-08-12 08:29:56 51°26.046 2°48.495 24.12 0.089752 0.463194 17.908893
2009-08-12 08:30:56 51°26.051 2°48.5 24.1803 0.095412 0.493575 17.908893
2009-08-12 08:31:56 51°26.099 2°48.557 24.1829 0.09253 0.478153 17.874069
2009-08-12 08:32:56 51°26.191 2°48.672 24.1869 0.092427 0.477633 17.839245
2009-08-12 08:33:56 51°26.293 2°48.793 24.2255 0.089031 0.459492 17.839245
2009-08-12 08:34:56 51°26.398 2°48.911 24.2846 0.092633 0.478814 17.804421
2009-08-12 08:35:56 51°26.504 2°49.033 24.314 0.094897 0.49095 17.769597
2009-08-12 08:36:56 51°26.607 2°49.161 24.3415 0.090163 0.465646 17.769597
2009-08-12 08:37:56 51°26.706 2°49.298 24.3904 0.092427 0.477804 17.734773
2009-08-12 08:38:56 51°26.794 2°49.421 24.4268 0.096235 0.49828 17.734773
2009-08-12 08:39:56 51°26.841 2°49.464 24.4212 0.090884 0.469603 17.699949
2009-08-12 08:40:56 51°26.86 2°49.462 24.4697 0.089443 0.461897 17.665125
2009-08-12 08:41:56 51°26.873 2°49.46 24.4899 0.084812 0.437196 17.665125
2009-08-12 08:42:56 51°26.883 2°49.46 24.5483 0.088208 0.455366 17.630301
2009-08-12 08:43:56 51°26.89 2°49.463 24.5514 0.086047 0.443867 17.630301
2009-08-12 08:44:56 51°26.897 2°49.466 24.6089 0.088105 0.454904 17.630301
2009-08-12 08:45:56 51°26.904 2°49.472 24.6387 0.087899 0.453833 17.595476
2009-08-12 08:46:56 51°26.908 2°49.478 24.6475 0.090163 0.466011 17.595476
2009-08-12 08:47:56 51°26.91 2°49.484 24.686 0.089855 0.464388 17.560652
2009-08-12 08:48:56 51°26.911 2°49.491 24.7332 0.085635 0.441849 17.525828
2009-08-12 08:49:56 51°26.911 2°49.496 24.7482 0.086973 0.449057 17.525828
2009-08-12 08:50:56 51°26.913 2°49.501 24.8031 0.088928 0.459541 17.525828
2009-08-12 08:51:56 51°26.938 2°49.488 24.8154 0.08934 0.461814 17.491004
2009-08-12 08:52:56 51°26.955 2°49.416 24.845 0.089134 0.460764 17.491004
2009-08-12 08:53:56 51°26.898 2°49.331 24.8594 0.090163 0.466293 17.45618
2009-08-12 08:54:56 51°26.766 2°49.318 24.8331 0.093971 0.486759 17.45618
2009-08-12 08:55:56 51°26.587 2°49.335 24.8773 0.09922 0.515056 17.421356
2009-08-12 08:56:56 51°26.399 2°49.352 24.8418 0.139255 0.733316 17.421356
2009-08-12 08:57:56 51°26.209 2°49.363 24.8258 0.126287 0.66226 17.386532
2009-08-12 08:58:56 51°26.018 2°49.374 24.8286 0.139152 0.732895 17.351708
2009-08-12 08:59:56 51°25.829 2°49.387 24.8566 0.113731 0.593817 17.316884
2009-08-12 09:00:56 51°25.64 2°49.399 24.7962 0.118568 0.620923 17.316884
2009-08-12 09:01:56 51°25.453 2°49.43 24.9029 0.204201 1.097093 17.28206
2009-08-12 09:02:56 51°25.266 2°49.468 24.8907 0.165809 0.88181 17.247236
2009-08-12 09:03:56 51°25.079 2°49.504 24.9221 0.137505 0.725648 17.247236
2009-08-12 09:04:56 51°24.89 2°49.536 24.9489 0.138329 0.731413 17.177588
2009-08-12 09:05:56 51°24.699 2°49.565 24.9669 0.181866 0.974332 17.177588
2009-08-12 09:06:56 51°24.509 2°49.598 24.9833 0.137608 0.726685 17.142764
2009-08-12 09:07:56 51°24.318 2°49.635 25.0296 0.146459 0.776309 17.10794
2009-08-12 09:08:56 51°24.131 2°49.671 25.0482 0.127831 0.673812 17.10794
2009-08-12 09:09:56 51°23.941 2°49.707 25.0834 0.345335 1.91836 17.073116
2009-08-12 09:10:56 51°23.794 2°49.729 25.0954 0.547056 3.128383 17.038292
2009-08-12 09:11:56 51°23.719 2°49.67 25.1341 0.406802 2.283995 17.038292
2009-08-12 09:12:56 51°23.745 2°49.542 25.1755 0.34935 1.944883 17.003468
2009-08-12 09:13:56 51°23.86 2°49.322 25.2041 0.153149 0.816028 16.968644
2009-08-12 09:14:56 51°23.953 2°49.056 25.2436 0.101793 0.53291 16.933819
2009-08-12 09:15:56 51°23.969 2°48.742 25.2531 0.112393 0.590731 16.933819
2009-08-12 09:16:56 51°23.959 2°48.422 25.2664 0.118774 0.625747 16.898995
2009-08-12 09:17:56 51°23.949 2°48.101 25.3291 0.107762 0.565401 16.864171
2009-08-12 09:18:56 51°23.945 2°47.778 25.3659 0.104366 0.547045 16.864171
2009-08-12 09:19:56 51°23.942 2°47.457 25.3554 0.103645 0.543201 16.864171
2009-08-12 09:20:56 51°23.942 2°47.139 25.4139 0.105292 0.552213 16.829347
2009-08-12 09:21:56 51°23.935 2°46.82 25.4267 0.100146 0.524191 16.794523
2009-08-12 09:22:56 51°23.918 2°46.5 25.4355 0.105086 0.551063 16.794523
2009-08-12 09:23:56 51°23.904 2°46.18 25.4571 0.10735 0.563538 16.794523
2009-08-12 09:24:56 51°23.89 2°45.86 25.4899 0.106424 0.558574 16.794523
2009-08-12 09:25:56 51°23.875 2°45.538 25.5508 0.104469 0.547851 16.759699
2009-08-12 09:26:56 51°23.862 2°45.215 25.537 0.103234 0.541245 16.759699
2009-08-12 09:27:56 51°23.863 2°44.894 25.566 0.101072 0.529843 16.724875
2009-08-12 09:28:56 51°23.872 2°44.588 25.5963 0.109203 0.574174 16.724875
2009-08-12 09:29:56 51°23.899 2°44.348 25.6519 0.109614 0.576533 16.690051
2009-08-12 09:30:56 51°23.918 2°44.243 25.6926 0.112393 0.591754 16.690051
2009-08-12 09:31:56 51°23.922 2°44.217 25.6906 0.110644 0.582303 16.690051
2009-08-12 09:32:56 51°23.922 2°44.208 25.7152 0.116819 0.615989 16.655227
2009-08-12 09:33:56 51°23.923 2°44.205 25.7429 0.113937 0.600409 16.655227
2009-08-12 09:34:56 51°23.935 2°44.214 25.7284 0.120935 0.639077 16.655227
2009-08-12 09:35:56 51°23.933 2°44.217 25.7017 0.116407 0.614158 16.620403
2009-08-12 09:36:56 51°23.926 2°44.232 25.7383 0.126699 0.670863 16.620403
2009-08-12 09:37:56 51°23.918 2°44.253 25.7478 0.125567 0.664377 16.620403
2009-08-12 09:38:56 51°23.913 2°44.278 25.7799 0.116716 0.615773 16.620403
2009-08-12 09:39:56 51°23.915 2°44.305 25.8467 0.120421 0.63637 16.585579
2009-08-12 09:40:56 51°23.924 2°44.324 25.8697 0.119392 0.630733 16.585579
2009-08-12 09:41:56 51°23.928 2°44.322 25.8913 0.114966 0.606453 16.585579
2009-08-12 09:42:56 51°23.929 2°44.311 25.918 0.114657 0.604747 16.585579
2009-08-12 09:43:56 51°23.928 2°44.297 25.9389 0.120524 0.637075 16.550755
2009-08-12 09:44:56 51°23.925 2°44.285 26.0599 0.108379 0.570268 16.585579
2009-08-12 09:45:56 51°23.922 2°44.275 24.2204 0.154693 0.826811 27.7641
2009-08-12 09:46:56 51°23.919 2°44.267 24.3903 0.149444 0.798638 29.574951
2009-08-12 09:47:58 51°23.897 2°44.262 24.4285 0.140387 0.748106 33.127004
2009-08-12 09:48:58 51°23.906 2°44.282 24.6642 0.199055 1.078699 35.216448
2009-08-12 09:49:57 51°23.915 2°44.321 24.6887 0.148827 0.794865 36.679058
2009-08-12 09:50:56 51°23.923 2°44.327 24.7448 0.132359 0.703472 37.8979
2009-08-12 09:51:56 51°23.915 2°44.315 24.7434 0.12814 0.680168 39.047094
2009-08-12 09:52:56 51°23.906 2°44.305 24.7878 0.122891 0.651226 40.022167
2009-08-12 09:53:56 51°23.898 2°44.295 24.8238 0.129375 0.687184 40.753472
2009-08-12 09:54:56 51°23.889 2°44.287 24.9699 0.118054 0.62462 41.380305
2009-08-12 09:55:56 51°23.881 2°44.279 24.9454 0.116613 0.616678 41.833018
2009-08-12 09:56:56 51°23.882 2°44.267 25.0044 0.114966 0.607741 42.076786
2009-08-12 09:57:56 51°23.895 2°44.255 25.0251 0.13802 0.735495 42.181258
2009-08-12 09:58:56 51°23.9 2°44.248 25.1194 0.117745 0.62297 42.250907
2009-08-12 09:59:56 51°23.911 2°44.291 25.196 0.262669 1.445947 42.285731
2009-08-12 10:00:56 51°23.913 2°44.321 25.1982 0.243934 1.337096 42.146434
2009-08-12 10:01:56 51°23.907 2°44.336 25.193 0.250419 1.37579 42.076786
2009-08-12 10:02:56 51°23.901 2°44.356 25.243 0.483927 2.768195 42.041962
2009-08-12 10:03:56 51°23.908 2°44.381 25.1891 0.161178 0.866209 41.93749
2009-08-12 10:04:56 51°23.92 2°44.384 25.214 0.124229 0.659794 41.798194
2009-08-12 10:05:56 51°23.922 2°44.376 25.1902 0.110541 0.584564 41.728546
2009-08-12 10:06:56 51°23.923 2°44.362 25.2229 0.110335 0.583548 41.624074
2009-08-12 10:07:56 51°23.92 2°44.347 25.242 0.108791 0.575072 41.519601
2009-08-12 10:08:56 51°23.918 2°44.331 25.3043 0.109512 0.579016 41.380305
2009-08-12 10:09:56 51°23.918 2°44.314 25.2746 0.110232 0.58303 41.345481
2009-08-12 10:10:56 51°23.913 2°44.298 25.314 0.113731 0.602333 41.345481
2009-08-12 10:11:56 51°23.908 2°44.285 25.2982 0.119186 0.632442 41.275833
2009-08-12 10:12:56 51°23.902 2°44.273 25.3022 0.112496 0.595543 41.275833
2009-08-12 10:13:56 51°23.896 2°44.264 25.3462 0.106527 0.562634 41.345481
2009-08-12 10:14:56 51°23.888 2°44.256 25.3307 0.122068 0.648512 41.310657
2009-08-12 10:15:56 51°23.879 2°44.247 25.3416 0.111879 0.592219 41.380305
2009-08-12 10:16:56 51°23.869 2°44.24 25.3659 0.108071 0.571292 41.519601
2009-08-12 10:17:56 51°23.871 2°44.234 25.3711 0.1091 0.576935 41.624074
2009-08-12 10:18:56 51°23.885 2°44.24 25.3879 0.12217 0.649312 41.798194
2009-08-12 10:19:56 51°23.896 2°44.265 25.4112 0.133903 0.714572 41.972314
2009-08-12 10:20:56 51°23.904 2°44.297 25.4026 0.148621 0.796632 42.076786
2009-08-12 10:21:56 51°23.919 2°44.313 25.4197 0.125258 0.666493 42.285731
2009-08-12 10:22:56 51°23.926 2°44.306 25.4135 0.125155 0.666011 42.494675
2009-08-12 10:23:56 51°23.929 2°44.289 25.4325 0.107145 0.566502 42.703619
2009-08-12 10:24:56 51°23.928 2°44.268 25.4568 0.10241 0.540576 42.982212
2009-08-12 10:25:56 51°23.923 2°44.248 25.4495 0.10488 0.554213 43.156332
2009-08-12 10:26:56 51°23.918 2°44.231 25.4526 0.11332 0.600768 43.330452
2009-08-12 10:27:56 51°23.913 2°44.215 25.4558 0.111879 0.592915 43.574221
2009-08-12 10:28:56 51°23.944 2°44.192 25.461 0.114349 0.606564 43.852813
2009-08-12 10:29:56 51°24.051 2°44.168 25.4821 0.144195 0.772774 44.061757
2009-08-12 10:30:56 51°24.179 2°44.19 25.4831 0.112805 0.598008 44.305526
2009-08-12 10:31:56 51°24.308 2°44.223 25.4997 0.105601 0.558454 44.51447
2009-08-12 10:32:56 51°24.415 2°44.238 25.4864 0.113628 0.602777 44.68859
2009-08-12 10:33:56 51°24.458 2°44.208 25.4985 0.103851 0.548936 44.967183
2009-08-12 10:34:56 51°24.478 2°44.179 25.5023 0.107659 0.570021 45.210951
2009-08-12 10:35:56 51°24.484 2°44.151 25.5079 0.098191 0.517885 45.454719
2009-08-12 10:36:56 51°24.483 2°44.124 25.5028 0.108688 0.575664 45.663664
2009-08-12 10:37:56 51°24.482 2°44.093 25.5099 0.105189 0.556386 45.872608
2009-08-12 10:38:56 51°24.485 2°44.029 25.5199 0.108174 0.572818 46.081552
2009-08-12 10:39:56 51°24.47 2°43.931 25.5234 0.108585 0.574903 46.220849
2009-08-12 10:40:56 51°24.417 2°43.828 25.5268 0.115378 0.61285 46.360145
2009-08-12 10:41:56 51°24.354 2°43.703 25.5354 0.129581 0.691854 46.534265
2009-08-12 10:42:56 51°24.285 2°43.566 25.5389 0.146666 0.78761 46.673561
2009-08-12 10:43:56 51°24.209 2°43.432 25.501 1.40181 8.702633 46.847682
2009-08-12 10:44:56 51°24.123 2°43.286 25.5425 0.229008 1.258064 46.952154
2009-08-12 10:45:56 51°24.028 2°43.119 25.5679 0.139049 0.744971 47.126274
2009-08-12 10:46:56 51°23.933 2°42.95 25.586 0.149342 0.803249 47.26557
2009-08-12 10:47:56 51°23.838 2°42.782 25.6022 0.141725 0.760582 47.439691
2009-08-12 10:48:56 51°23.742 2°42.613 25.715 0.10241 0.542066 47.613811
2009-08-12 10:49:56 51°23.639 2°42.457 25.6916 0.127008 0.678942 47.683459
2009-08-12 10:50:56 51°23.535 2°42.301 25.6976 0.185263 1.007313 47.822755
2009-08-12 10:51:56 51°23.432 2°42.144 25.7151 0.18413 1.000715 47.996875
2009-08-12 10:52:56 51°23.33 2°41.989 25.7346 0.164883 0.891555 48.136172
2009-08-12 10:53:56 51°23.223 2°41.824 25.757 0.141931 0.762486 48.310292
2009-08-12 10:54:56 51°23.115 2°41.658 25.7697 0.16406 0.887492 48.449588
2009-08-12 10:55:56 51°23.006 2°41.493 23.3772 0.165501 0.895861 48.275468
2009-08-12 10:56:56 51°22.898 2°41.325 23.7282 0.158502 0.856426 48.37994
2009-08-12 10:57:56 51°22.785 2°41.151 23.8952 0.171676 0.931494 48.55406
2009-08-12 10:58:56 51°22.668 2°40.971 23.8689 0.146974 0.792107 48.658532
2009-08-12 10:59:56 51°22.542 2°40.809 23.952 0.147901 0.79752 48.797829
2009-08-12 11:00:56 51°22.405 2°40.671 24.0989 0.172294 0.935199 48.832653
2009-08-12 11:01:56 51°22.278 2°40.552 24.1693 0.129066 0.691484 48.867477
2009-08-12 11:02:56 51°22.155 2°40.49 24.3089 0.211407 1.160485 48.902301
2009-08-12 11:03:56 51°22.05 2°40.448 24.2785 0.213363 1.172284 48.937125
2009-08-12 11:04:56 51°21.973 2°40.49 24.4818 0.129066 0.692365 49.006773
2009-08-12 11:05:56 51°21.925 2°40.664 24.52 0.182278 0.994138 49.076421
2009-08-12 11:06:56 51°21.912 2°40.898 24.5775 0.111467 0.594503 49.180893
2009-08-12 11:07:56 51°21.938 2°41.125 24.5321 0.120421 0.64439 49.215717
2009-08-12 11:08:56 51°21.976 2°41.266 24.6412 0.10097 0.53656 49.215717
2009-08-12 11:09:56 51°22.044 2°41.398 24.5303 0.121039 0.648155 49.250541
2009-08-12 11:10:56 51°22.129 2°41.536 24.6049 0.110438 0.589118 49.285365
2009-08-12 11:11:56 51°22.192 2°41.621 24.5812 0.116407 0.622333 49.389838
2009-08-12 11:12:56 51°22.242 2°41.656 24.6101 0.103337 0.549746 49.49431
2009-08-12 11:13:56 51°22.314 2°41.661 24.7505 0.095206 0.504883 49.598782
2009-08-12 11:14:56 51°22.431 2°41.66 24.8007 0.097882 0.519628 49.633606
2009-08-12 11:15:56 51°22.514 2°41.613 24.7788 0.099117 0.526512 49.703254
2009-08-12 11:16:56 51°22.575 2°41.555 24.7661 0.103954 0.55321 49.66843
2009-08-12 11:17:56 51°22.625 2°41.57 24.7022 0.102513 0.545359 49.738078
2009-08-12 11:18:56 51°22.676 2°41.579 24.8557 0.097676 0.518686 49.877374
2009-08-12 11:19:56 51°22.731 2°41.555 24.786 0.095206 0.505054 49.912198
2009-08-12 11:20:56 51°22.777 2°41.51 24.8034 0.099426 0.528386 49.877374
2009-08-12 11:21:56 51°22.808 2°41.458 24.86 0.093869 0.497638 49.947022
2009-08-12 11:22:56 51°22.843 2°41.426 24.9607 0.095001 0.504065 50.086319
2009-08-12 11:23:56 51°22.848 2°41.495 24.9536 0.142549 0.769466 50.086319
2009-08-12 11:24:56 51°22.778 2°41.582 24.9427 0.125052 0.670956 50.155967
2009-08-12 11:25:56 51°22.667 2°41.691 25.0305 0.131639 0.708023 50.295263
2009-08-12 11:26:56 51°22.558 2°41.779 25.0357 0.109821 0.586375 50.295263
2009-08-12 11:27:56 51°22.441 2°41.877 25.0017 0.192056 1.052447 50.364911
2009-08-12 11:28:56 51°22.334 2°41.955 25.0305 0.140799 0.760567 50.399735
2009-08-12 11:29:56 51°22.253 2°42.005 25.0765 0.114863 0.61504 50.469383
2009-08-12 11:30:56 51°22.141 2°42.122 25.0888 0.101999 0.543747 50.469383
2009-08-12 11:31:56 51°22.008 2°42.323 25.0771 0.162825 0.886084 50.469383
2009-08-12 11:32:56 51°21.877 2°42.534 25.1618 0.139255 0.752339 50.469383
2009-08-12 11:33:56 51°21.744 2°42.743 25.1122 0.128037 0.689191 50.504207
2009-08-12 11:34:56 51°21.607 2°42.948 25.1383 0.175896 0.960831 50.608679
2009-08-12 11:35:56 51°21.469 2°43.155 25.103 0.147592 0.799725 50.539031
2009-08-12 11:36:56 51°21.33 2°43.362 25.1677 0.11332 0.606896 50.643503
2009-08-12 11:37:56 51°21.194 2°43.571 25.1214 0.142343 0.770117 50.608679
2009-08-12 11:38:56 51°21.057 2°43.778 25.1393 0.137609 0.743436 50.678328
2009-08-12 11:39:56 51°20.92 2°43.984 25.1713 0.105086 0.561303 50.713152
2009-08-12 11:40:56 51°20.782 2°44.19 25.1829 0.129169 0.696006 50.7828
2009-08-12 11:41:56 51°20.648 2°44.391 25.1625 0.312083 1.75945 50.747976
2009-08-12 11:42:56 51°20.514 2°44.591 25.1729 0.23642 1.312345 50.434559
2009-08-12 11:43:56 51°20.387 2°44.8 25.2092 0.115481 0.619477 50.643503
2009-08-12 11:44:56 51°20.296 2°45.047 25.1353 0.782642 4.686434 50.747976
2009-08-12 11:45:56 51°20.211 2°45.296 25.1606 0.148724 0.807057 50.817624
2009-08-12 11:46:56 51°20.127 2°45.542 25.1973 0.124126 0.668171 50.852448
2009-08-12 11:47:56 51°20.04 2°45.784 25.1304 1.895123 12.188144 50.95692
2009-08-12 11:48:56 51°19.954 2°46.024 25.1921 0.141931 0.768472 51.026568
2009-08-12 11:49:56 51°19.863 2°46.265 25.1455 0.14399 0.780185 51.061392
2009-08-12 11:50:56 51°19.769 2°46.505 25.2444 0.120215 0.646138 51.13104
2009-08-12 11:51:56 51°19.671 2°46.745 25.236 0.106321 0.568729 51.165864
2009-08-12 11:52:56 51°19.574 2°46.991 25.2046 0.119083 0.639992 51.235512
2009-08-12 11:53:56 51°19.476 2°47.233 25.2343 0.128963 0.695335 51.30516
2009-08-12 11:54:56 51°19.378 2°47.476 25.2565 0.332776 1.884022 51.30516
2009-08-12 11:55:56 51°19.28 2°47.718 25.2592 0.099323 0.529755 51.339985
2009-08-12 11:56:56 51°19.184 2°47.961 25.2628 0.136477 0.737903 51.444457
2009-08-12 11:57:56 51°19.089 2°48.204 25.2788 0.110541 0.592161 51.479281
2009-08-12 11:58:56 51°18.992 2°48.444 25.2928 0.142961 0.774619 51.444457
2009-08-12 11:59:56 51°18.899 2°48.688 25.2743 0.141314 0.765291 51.479281
2009-08-12 12:00:56 51°18.807 2°48.934 25.2907 0.14893 0.808489 51.514105
2009-08-12 12:01:56 51°18.714 2°49.178 25.3185 0.134624 0.727727 51.548929
2009-08-12 12:02:56 51°18.619 2°49.421 25.3032 0.120627 0.648778 51.583753
2009-08-12 12:03:56 51°18.525 2°49.662 25.3017 0.148004 0.803338 51.583753
2009-08-12 12:04:56 51°18.428 2°49.905 25.3068 0.115378 0.619282 51.583753
2009-08-12 12:05:56 51°18.33 2°50.15 25.3195 0.119186 0.640809 51.653401
2009-08-12 12:06:56 51°18.232 2°50.396 25.3321 0.110335 0.591245 51.653401
2009-08-12 12:07:56 51°18.136 2°50.641 25.3214 0.161281 0.878833 51.723049
2009-08-12 12:08:56 51°18.035 2°50.879 25.3293 0.182792 1.002434 51.688225
2009-08-12 12:09:56 51°17.91 2°51.097 25.3445 0.110541 0.592757 51.723049
2009-08-12 12:10:56 51°17.78 2°51.313 25.3405 0.107248 0.57414 51.827521
2009-08-12 12:11:56 51°17.651 2°51.533 25.373 0.187939 1.032303 51.827521
2009-08-12 12:12:56 51°17.499 2°51.716 25.347 0.139976 0.757912 51.862345
2009-08-12 12:13:56 51°17.323 2°51.857 25.3631 0.130919 0.706722 51.931993
2009-08-12 12:14:56 51°17.163 2°52.032 25.3423 0.25639 1.431565 51.931993
2009-08-12 12:15:56 51°17.016 2°52.231 25.3647 0.162104 0.883975 51.966818
2009-08-12 12:16:56 51°16.86 2°52.415 25.3729 0.106733 0.571186 52.036466
2009-08-12 12:17:56 51°16.696 2°52.585 25.3753 0.185572 1.018423 52.106114
2009-08-12 12:18:56 51°16.528 2°52.747 25.3896 0.094486 0.503308 52.140938
2009-08-12 12:19:56 51°16.361 2°52.907 25.4003 0.106939 0.572488 52.140938
2009-08-12 12:20:56 51°16.192 2°53.058 25.4079 0.125876 0.67871 52.175762
2009-08-12 12:21:56 51°16.022 2°53.207 25.4173 0.098603 0.526138 52.210586
2009-08-12 12:22:56 51°15.852 2°53.352 25.4236 0.110335 0.591345 52.24541
2009-08-12 12:23:56 51°15.683 2°53.496 25.4311 0.118569 0.637446 52.280234
2009-08-12 12:24:56 51°15.518 2°53.651 25.4389 0.125773 0.677782 52.24541
2009-08-12 12:25:56 51°15.361 2°53.822 25.4456 0.135139 0.730433 52.349882
2009-08-12 12:26:56 51°15.206 2°53.993 25.4492 0.130713 0.705622 52.384706
2009-08-12 12:27:56 51°15.053 2°54.158 25.4551 0.248567 1.385551 52.384706
2009-08-12 12:28:56 51°14.9 2°54.334 25.4617 0.117848 0.633495 52.07129
2009-08-12 12:29:56 51°14.748 2°54.518 25.4658 0.0985 0.525532 52.140938
2009-08-12 12:30:56 51°14.6 2°54.709 25.4725 0.102411 0.547377 52.106114
2009-08-12 12:31:56 51°14.461 2°54.911 25.4727 0.131845 0.712653 52.24541
2009-08-12 12:32:56 51°14.331 2°55.128 25.4784 0.137094 0.741876 52.280234
2009-08-12 12:33:56 51°14.218 2°55.317 25.4832 0.106013 0.567436 52.349882
2009-08-12 12:34:56 51°14.1 2°55.431 25.4893 0.108791 0.583012 52.41953
2009-08-12 12:35:56 51°13.986 2°55.513 25.4931 0.104469 0.558947 52.524002
2009-08-12 12:36:56 51°13.886 2°55.585 25.4985 0.108277 0.580142 52.59365
2009-08-12 12:37:56 51°13.798 2°55.653 25.5049 0.109718 0.588161 52.698123
2009-08-12 12:38:56 51°13.74 2°55.743 25.5087 0.109306 0.585834 52.732947
2009-08-12 12:39:56 51°13.706 2°55.842 25.5092 0.107453 0.575463 52.767771
2009-08-12 12:40:56 51°13.69 2°55.899 25.5189 0.113011 0.606444 52.802595
2009-08-12 12:41:57 51°13.687 2°55.904 25.5336 0.102925 0.550134 52.802595